createdAt,value
2019-03-17T00:00:12.256Z,97954.92
2019-03-17T00:01:25.073Z,97952.28
2019-03-17T00:02:33.262Z,97959.37
2019-03-17T00:03:41.390Z,97960.31
2019-03-17T00:04:49.250Z,97955.64
2019-03-17T00:05:57.335Z,97952.74
2019-03-17T00:07:05.878Z,97954.33
2019-03-17T00:08:14.226Z,97941.95
2019-03-17T00:09:22.218Z,97944.11
2019-03-17T00:10:30.349Z,97949.88
2019-03-17T00:11:38.379Z,97942.56
2019-03-17T00:12:46.545Z,97944.95
2019-03-17T00:13:54.747Z,97944.34
2019-03-17T00:15:05.750Z,97947.34
2019-03-17T00:16:13.578Z,97941.47
2019-03-17T00:17:22.826Z,97938.47
2019-03-17T00:18:31.653Z,97938.09
2019-03-17T00:19:39.602Z,97934.87
2019-03-17T00:20:47.653Z,97934.39
2019-03-17T00:21:55.620Z,97924.30
2019-03-17T00:23:03.819Z,97919.95
2019-03-17T00:24:12.020Z,97919.98
2019-03-17T00:25:20.274Z,97926.59
2019-03-17T00:26:28.230Z,97930.91
2019-03-17T00:27:36.316Z,97923.69
2019-03-17T00:28:44.566Z,97920.08
2019-03-17T00:29:52.787Z,97925.01
2019-03-17T00:31:00.829Z,97927.65
2019-03-17T00:32:08.898Z,97925.72
2019-03-17T00:33:16.812Z,97922.59
2019-03-17T00:34:24.794Z,97923.91
2019-03-17T00:35:33.944Z,97922.36
2019-03-17T00:36:42.114Z,97925.84
2019-03-17T00:37:50.606Z,97926.20
2019-03-17T00:38:58.414Z,97920.92
2019-03-17T00:40:10.344Z,97922.59
2019-03-17T00:41:18.864Z,97923.43
2019-03-17T00:42:26.900Z,97922.59
2019-03-17T00:43:35.096Z,97918.14
2019-03-17T00:44:43.204Z,97919.23
2019-03-17T00:45:51.873Z,97915.41
2019-03-17T00:46:59.964Z,97918.05
2019-03-17T00:48:08.331Z,97920.56
2019-03-17T00:49:16.275Z,97914.80
2019-03-17T00:50:24.426Z,97914.80
2019-03-17T00:51:32.705Z,97919.23
2019-03-17T00:52:40.908Z,97915.63
2019-03-17T00:53:48.987Z,97917.89
2019-03-17T00:54:56.878Z,97914.53
2019-03-17T00:56:05.196Z,97906.13
2019-03-17T00:57:13.298Z,97904.67
2019-03-17T00:58:21.416Z,97900.35
2019-03-17T00:59:29.507Z,97892.81
2019-03-17T01:00:38.060Z,97892.69
2019-03-17T01:01:46.194Z,97892.55
2019-03-17T01:02:54.515Z,97890.88
2019-03-17T01:04:02.442Z,97889.08
2019-03-17T01:05:10.652Z,97890.30
2019-03-17T01:06:18.355Z,97890.05
2019-03-17T01:07:26.261Z,97901.09
2019-03-17T01:08:34.561Z,97898.94
2019-03-17T01:09:42.765Z,97897.84
2019-03-17T01:10:50.891Z,97893.52
2019-03-17T01:11:58.743Z,97894.58
2019-03-17T01:13:06.912Z,97896.16
2019-03-17T01:14:14.855Z,97897.22
2019-03-17T01:15:22.666Z,97893.88
2019-03-17T01:16:30.635Z,97898.45
2019-03-17T01:17:38.865Z,97897.58
2019-03-17T01:18:46.639Z,97893.26
2019-03-17T01:19:54.811Z,97893.16
2019-03-17T01:21:02.821Z,97893.39
2019-03-17T01:22:10.893Z,97896.55
2019-03-17T01:23:18.999Z,97893.17
2019-03-17T01:24:26.833Z,97898.81
2019-03-17T01:25:34.685Z,97895.32
2019-03-17T01:26:42.695Z,97887.00
2019-03-17T01:27:50.681Z,97884.48
2019-03-17T01:28:58.669Z,97883.98
2019-03-17T01:30:10.674Z,97883.89
2019-03-17T01:31:18.774Z,97882.57
2019-03-17T01:32:26.704Z,97887.24
2019-03-17T01:33:34.762Z,97889.17
2019-03-17T01:34:42.644Z,97888.91
2019-03-17T01:35:50.534Z,97885.41
2019-03-17T01:36:58.641Z,97884.11
2019-03-17T01:38:06.836Z,97882.43
2019-03-17T01:39:14.695Z,97885.77
2019-03-17T01:40:22.640Z,97880.73
2019-03-17T01:41:30.590Z,97881.93
2019-03-17T01:42:38.699Z,97885.64
2019-03-17T01:43:46.697Z,97883.97
2019-03-17T01:44:55.106Z,97885.55
2019-03-17T01:46:03.173Z,97877.28
2019-03-17T01:47:11.025Z,97880.86
2019-03-17T01:48:19.189Z,97880.75
2019-03-17T01:49:27.296Z,97880.30
2019-03-17T01:50:35.284Z,97885.45
2019-03-17T01:51:43.310Z,97883.87
2019-03-17T01:52:51.244Z,97883.98
2019-03-17T01:53:59.233Z,97881.73
2019-03-17T01:55:08.376Z,97882.79
2019-03-17T01:56:16.498Z,97875.47
2019-03-17T01:57:24.804Z,97874.36
2019-03-17T01:58:32.878Z,97880.97
2019-03-17T01:59:40.869Z,97878.09
2019-03-17T02:00:48.743Z,97882.06
2019-03-17T02:01:56.739Z,97878.09
2019-03-17T02:03:05.089Z,97876.02
2019-03-17T02:04:13.315Z,97872.89
2019-03-17T02:05:22.522Z,97874.22
2019-03-17T02:06:30.886Z,97872.77
2019-03-17T02:07:38.996Z,97876.24
2019-03-17T02:08:47.488Z,97874.08
2019-03-17T02:09:55.690Z,97871.57
2019-03-17T02:11:03.505Z,97875.19
2019-03-17T02:12:11.371Z,97872.89
2019-03-17T02:13:19.402Z,97867.23
2019-03-17T02:14:27.229Z,97870.59
2019-03-17T02:15:35.361Z,97872.62
2019-03-17T02:16:43.633Z,97869.38
2019-03-17T02:17:51.657Z,97869.25
2019-03-17T02:18:59.467Z,97870.79
2019-03-17T02:20:10.966Z,97870.30
2019-03-17T02:21:19.038Z,97867.42
2019-03-17T02:22:27.101Z,97866.94
2019-03-17T02:23:35.073Z,97861.16
2019-03-17T02:24:43.008Z,97855.38
2019-03-17T02:25:51.002Z,97859.22
2019-03-17T02:27:02.168Z,97865.34
2019-03-17T02:28:10.267Z,97867.16
2019-03-17T02:29:18.554Z,97865.00
2019-03-17T02:30:26.508Z,97866.19
2019-03-17T02:31:34.550Z,97864.38
2019-03-17T02:32:42.856Z,97872.66
2019-03-17T02:33:52.319Z,97873.98
2019-03-17T02:35:00.498Z,97878.20
2019-03-17T02:36:08.574Z,97875.20
2019-03-17T02:37:16.830Z,97879.66
2019-03-17T02:38:24.903Z,97881.69
2019-03-17T02:39:32.881Z,97876.27
2019-03-17T02:40:40.858Z,97875.64
2019-03-17T02:41:49.003Z,97875.99
2019-03-17T02:42:57.100Z,97876.38
2019-03-17T02:44:04.925Z,97875.05
2019-03-17T02:45:13.365Z,97879.38
2019-03-17T02:46:21.368Z,97881.67
2019-03-17T02:47:29.433Z,97875.76
2019-03-17T02:48:37.455Z,97871.16
2019-03-17T02:49:45.651Z,97877.30
2019-03-17T02:50:56.314Z,97882.45
2019-03-17T02:52:03.149Z,97874.52
2019-03-17T02:53:11.581Z,97875.00
2019-03-17T02:54:19.555Z,97874.90
2019-03-17T02:55:27.565Z,97875.73
2019-03-17T02:56:35.497Z,97872.59
2019-03-17T02:57:43.840Z,97875.25
2019-03-17T02:58:51.794Z,97872.59
2019-03-17T02:59:59.782Z,97865.15
2019-03-17T03:01:07.739Z,97868.63
2019-03-17T03:02:15.654Z,97865.36
2019-03-17T03:03:23.806Z,97862.45
2019-03-17T03:04:31.916Z,97865.48
2019-03-17T03:05:54.154Z,97860.53
2019-03-17T03:06:49.483Z,97861.86
2019-03-17T03:07:57.723Z,97855.59
2019-03-17T03:09:08.327Z,97858.10
2019-03-17T03:10:16.235Z,97854.97
2019-03-17T03:11:24.459Z,97853.99
2019-03-17T03:12:32.788Z,97851.70
2019-03-17T03:13:40.715Z,97855.19
2019-03-17T03:14:49.106Z,97849.54
2019-03-17T03:15:57.305Z,97854.73
2019-03-17T03:17:05.623Z,97853.41
2019-03-17T03:18:13.715Z,97854.59
2019-03-17T03:19:22.096Z,97860.38
2019-03-17T03:20:30.226Z,97861.07
2019-03-17T03:21:38.299Z,97854.80
2019-03-17T03:22:46.818Z,97853.34
2019-03-17T03:23:54.901Z,97850.34
2019-03-17T03:25:02.793Z,97845.75
2019-03-17T03:26:10.686Z,97840.25
2019-03-17T03:27:18.521Z,97845.89
2019-03-17T03:28:26.718Z,97846.73
2019-03-17T03:29:34.675Z,97839.13
2019-03-17T03:30:42.378Z,97839.27
2019-03-17T03:31:50.402Z,97840.59
2019-03-17T03:32:58.551Z,97845.16
2019-03-17T03:34:06.757Z,97840.22
2019-03-17T03:35:14.968Z,97844.67
2019-03-17T03:36:22.974Z,97836.59
2019-03-17T03:37:30.865Z,97834.78
2019-03-17T03:38:39.033Z,97841.41
2019-03-17T03:39:47.234Z,97833.46
2019-03-17T03:40:55.438Z,97831.16
2019-03-17T03:42:03.847Z,97832.24
2019-03-17T03:43:12.245Z,97827.05
2019-03-17T03:45:39.801Z,97829.18
2019-03-17T03:46:47.880Z,97822.73
2019-03-17T03:47:56.205Z,97825.03
2019-03-17T03:49:04.770Z,97829.14
2019-03-17T03:50:13.927Z,97827.61
2019-03-17T03:51:22.032Z,97823.15
2019-03-17T03:52:30.130Z,97818.45
2019-03-17T03:53:38.260Z,97819.91
2019-03-17T03:54:46.112Z,97811.34
2019-03-17T03:55:54.050Z,97808.23
2019-03-17T03:57:02.013Z,97812.98
2019-03-17T03:58:10.205Z,97809.02
2019-03-17T03:59:18.333Z,97804.97
2019-03-17T04:00:26.248Z,97805.21
2019-03-17T04:01:34.529Z,97800.52
2019-03-17T04:02:42.899Z,97800.65
2019-03-17T04:03:51.250Z,97798.77
2019-03-17T04:04:59.493Z,97801.03
2019-03-17T04:06:25.142Z,97793.30
2019-03-17T04:07:19.330Z,97790.89
2019-03-17T04:08:27.157Z,97794.23
2019-03-17T04:09:35.141Z,97792.56
2019-03-17T04:10:43.233Z,97799.28
2019-03-17T04:11:51.456Z,97797.97
2019-03-17T04:12:59.651Z,97801.45
2019-03-17T04:14:08.002Z,97808.77
2019-03-17T04:15:16.198Z,97804.48
2019-03-17T04:16:24.461Z,97806.02
2019-03-17T04:17:32.842Z,97804.09
2019-03-17T04:18:40.789Z,97800.95
2019-03-17T04:19:49.192Z,97802.14
2019-03-17T04:20:57.332Z,97802.00
2019-03-17T04:22:05.505Z,97797.89
2019-03-17T04:23:13.484Z,97797.41
2019-03-17T04:24:21.955Z,97796.91
2019-03-17T04:25:29.867Z,97792.00
2019-03-17T04:26:38.280Z,97793.44
2019-03-17T04:27:46.450Z,97791.62
2019-03-17T04:28:55.426Z,97790.78
2019-03-17T04:30:04.215Z,97784.55
2019-03-17T04:31:14.496Z,97784.55
2019-03-17T04:32:22.550Z,97781.03
2019-03-17T04:33:30.283Z,97774.78
2019-03-17T04:34:38.550Z,97777.78
2019-03-17T04:35:46.608Z,97786.56
2019-03-17T04:36:54.811Z,97786.22
2019-03-17T04:38:02.837Z,97787.19
2019-03-17T04:39:11.008Z,97783.22
2019-03-17T04:40:19.000Z,97784.55
2019-03-17T04:41:27.258Z,97782.34
2019-03-17T04:42:35.297Z,97786.81
2019-03-17T04:43:43.259Z,97790.30
2019-03-17T04:44:51.452Z,97788.28
2019-03-17T04:45:59.779Z,97788.77
2019-03-17T04:47:07.654Z,97786.74
2019-03-17T04:48:15.613Z,97787.23
2019-03-17T04:49:23.477Z,97792.18
2019-03-17T04:50:31.631Z,97790.02
2019-03-17T04:51:39.370Z,97785.32
2019-03-17T04:52:47.478Z,97788.45
2019-03-17T04:53:55.623Z,97782.53
2019-03-17T04:55:03.708Z,97783.86
2019-03-17T04:56:12.049Z,97783.61
2019-03-17T04:57:20.348Z,97786.74
2019-03-17T04:58:28.524Z,97795.88
2019-03-17T04:59:36.460Z,97793.71
2019-03-17T05:00:44.544Z,97785.91
2019-03-17T05:01:52.805Z,97791.55
2019-03-17T05:03:00.755Z,97787.09
2019-03-17T05:04:08.643Z,97785.28
2019-03-17T05:05:16.752Z,97792.53
2019-03-17T05:06:24.717Z,97788.06
2019-03-17T05:07:32.619Z,97788.55
2019-03-17T05:08:40.943Z,97790.23
2019-03-17T05:09:49.116Z,97786.88
2019-03-17T05:11:54.970Z,97784.66
2019-03-17T05:13:03.060Z,97788.55
2019-03-17T05:14:11.041Z,97789.88
2019-03-17T05:15:18.802Z,97794.59
2019-03-17T05:16:26.948Z,97792.18
2019-03-17T05:17:35.173Z,97793.02
2019-03-17T05:18:43.099Z,97788.55
2019-03-17T05:19:50.987Z,97784.72
2019-03-17T05:20:59.123Z,97797.97
2019-03-17T05:22:07.125Z,97787.12
2019-03-17T05:23:15.317Z,97790.06
2019-03-17T05:24:23.111Z,97795.00
2019-03-17T05:25:31.209Z,97795.00
2019-03-17T05:26:39.252Z,97798.98
2019-03-17T05:27:47.306Z,97794.17
2019-03-17T05:28:55.712Z,97796.19
2019-03-17T05:30:04.110Z,97796.89
2019-03-17T05:31:12.338Z,97790.48
2019-03-17T05:32:20.550Z,97789.53
2019-03-17T05:33:28.558Z,97785.42
2019-03-17T05:34:36.609Z,97785.28
2019-03-17T05:35:44.714Z,97783.33
2019-03-17T05:37:05.052Z,97786.33
2019-03-17T05:38:02.535Z,97791.52
2019-03-17T05:39:10.622Z,97796.66
2019-03-17T05:40:18.684Z,97795.69
2019-03-17T05:41:27.019Z,97787.75
2019-03-17T05:42:35.233Z,97788.79
2019-03-17T05:43:43.357Z,97790.49
2019-03-17T05:44:51.150Z,97788.05
2019-03-17T05:45:59.402Z,97786.87
2019-03-17T05:47:07.303Z,97788.79
2019-03-17T05:48:15.233Z,97788.68
2019-03-17T05:49:24.660Z,97790.56
2019-03-17T05:50:32.797Z,97791.88
2019-03-17T05:51:41.124Z,97797.53
2019-03-17T05:52:49.336Z,97793.65
2019-03-17T05:53:57.525Z,97797.28
2019-03-17T05:55:09.372Z,97790.86
2019-03-17T05:56:17.305Z,97792.33
2019-03-17T05:57:25.297Z,97790.72
2019-03-17T05:58:33.579Z,97787.68
2019-03-17T05:59:41.699Z,97789.20
2019-03-17T06:00:49.861Z,97794.79
2019-03-17T06:01:58.514Z,97778.75
2019-03-17T06:03:06.662Z,97782.72
2019-03-17T06:04:14.693Z,97782.58
2019-03-17T06:05:22.623Z,97784.84
2019-03-17T06:06:30.514Z,97785.05
2019-03-17T06:07:38.678Z,97787.98
2019-03-17T06:08:46.476Z,97790.20
2019-03-17T06:09:54.961Z,97785.83
2019-03-17T06:11:04.337Z,97793.88
2019-03-17T06:12:12.415Z,97785.00
2019-03-17T06:13:20.663Z,97787.66
2019-03-17T06:14:29.465Z,97788.72
2019-03-17T06:15:37.926Z,97781.12
2019-03-17T06:16:46.143Z,97791.77
2019-03-17T06:17:54.087Z,97785.23
2019-03-17T06:19:02.266Z,97784.00
2019-03-17T06:20:12.776Z,97786.02
2019-03-17T06:21:21.069Z,97787.84
2019-03-17T06:22:29.263Z,97782.73
2019-03-17T06:23:37.495Z,97787.14
2019-03-17T06:24:45.950Z,97778.67
2019-03-17T06:25:53.849Z,97786.83
2019-03-17T06:27:02.448Z,97783.00
2019-03-17T06:28:10.611Z,97793.48
2019-03-17T06:29:19.179Z,97786.80
2019-03-17T06:30:27.509Z,97787.63
2019-03-17T06:31:35.760Z,97790.43
2019-03-17T06:32:44.069Z,97786.85
2019-03-17T06:33:52.145Z,97790.89
2019-03-17T06:35:00.363Z,97782.67
2019-03-17T06:36:08.787Z,97788.18
2019-03-17T06:37:17.116Z,97785.04
2019-03-17T06:38:25.568Z,97789.02
2019-03-17T06:39:33.654Z,97783.91
2019-03-17T06:40:42.030Z,97788.13
2019-03-17T06:41:50.202Z,97782.53
2019-03-17T06:42:58.218Z,97775.87
2019-03-17T06:44:06.433Z,97783.97
2019-03-17T06:45:15.005Z,97783.00
2019-03-17T06:46:23.510Z,97772.59
2019-03-17T06:47:31.713Z,97772.81
2019-03-17T06:48:40.127Z,97771.75
2019-03-17T06:49:49.032Z,97770.63
2019-03-17T06:50:57.790Z,97771.89
2019-03-17T06:52:06.597Z,97766.03
2019-03-17T06:53:14.868Z,97768.77
2019-03-17T06:54:23.472Z,97766.38
2019-03-17T06:55:31.925Z,97769.28
2019-03-17T06:56:40.590Z,97773.00
2019-03-17T06:57:48.737Z,97771.72
2019-03-17T06:58:57.074Z,97768.37
2019-03-17T07:00:07.321Z,97774.94
2019-03-17T07:01:15.584Z,97767.81
2019-03-17T07:02:23.938Z,97765.58
2019-03-17T07:03:32.227Z,97762.70
2019-03-17T07:04:40.443Z,97765.25
2019-03-17T07:05:49.077Z,97767.34
2019-03-17T07:06:57.398Z,97771.73
2019-03-17T07:08:05.639Z,97764.34
2019-03-17T07:09:13.598Z,97767.67
2019-03-17T07:10:21.869Z,97760.05
2019-03-17T07:11:30.340Z,97765.55
2019-03-17T07:12:40.809Z,97766.80
2019-03-17T07:13:49.356Z,97763.84
2019-03-17T07:14:57.510Z,97769.80
2019-03-17T07:16:05.618Z,97765.23
2019-03-17T07:17:13.998Z,97770.89
2019-03-17T07:18:22.138Z,97766.91
2019-03-17T07:19:30.515Z,97775.52
2019-03-17T07:20:38.826Z,97767.97
2019-03-17T07:21:46.871Z,97764.85
2019-03-17T07:22:55.033Z,97762.91
2019-03-17T07:24:03.311Z,97762.99
2019-03-17T07:25:11.877Z,97766.03
2019-03-17T07:26:20.519Z,97763.33
2019-03-17T07:27:29.148Z,97757.03
2019-03-17T07:28:37.655Z,97764.08
2019-03-17T07:29:46.052Z,97770.88
2019-03-17T07:30:54.388Z,97760.03
2019-03-17T07:32:02.667Z,97768.30
2019-03-17T07:33:11.050Z,97770.81
2019-03-17T07:34:19.372Z,97771.71
2019-03-17T07:35:27.539Z,97766.93
2019-03-17T07:36:36.068Z,97763.02
2019-03-17T07:37:56.193Z,97772.34
2019-03-17T07:38:55.836Z,97769.41
2019-03-17T07:40:05.467Z,97754.83
2019-03-17T07:41:13.909Z,97760.24
2019-03-17T07:42:22.169Z,97769.11
2019-03-17T07:43:30.368Z,97764.94
2019-03-17T07:44:38.584Z,97753.16
2019-03-17T07:45:47.186Z,97761.20
2019-03-17T07:46:55.082Z,97772.26
2019-03-17T07:48:04.003Z,97754.91
2019-03-17T07:49:12.187Z,97758.34
2019-03-17T07:50:20.582Z,97759.25
2019-03-17T07:51:29.292Z,97764.31
2019-03-17T07:52:37.587Z,97754.45
2019-03-17T07:53:47.381Z,97756.62
2019-03-17T07:54:55.655Z,97763.11
2019-03-17T07:56:04.143Z,97757.48
2019-03-17T07:57:12.237Z,97760.58
2019-03-17T07:58:20.454Z,97758.09
2019-03-17T07:59:29.167Z,97765.75
2019-03-17T08:00:37.450Z,97758.25
2019-03-17T08:01:45.836Z,97752.93
2019-03-17T08:02:54.034Z,97758.11
2019-03-17T08:04:02.368Z,97751.89
2019-03-17T08:05:11.698Z,97750.80
2019-03-17T08:06:20.167Z,97750.19
2019-03-17T08:07:28.692Z,97752.08
2019-03-17T08:08:37.413Z,97751.62
2019-03-17T08:09:46.017Z,97747.63
2019-03-17T08:10:54.334Z,97755.50
2019-03-17T08:12:02.428Z,97755.72
2019-03-17T08:13:11.343Z,97753.09
2019-03-17T08:14:19.651Z,97751.11
2019-03-17T08:15:28.481Z,97758.47
2019-03-17T08:16:36.907Z,97754.52
2019-03-17T08:17:45.045Z,97769.00
2019-03-17T08:18:53.410Z,97761.88
2019-03-17T08:20:03.470Z,97767.95
2019-03-17T08:21:11.679Z,97767.33
2019-03-17T08:22:20.128Z,97767.69
2019-03-17T08:23:28.410Z,97767.69
2019-03-17T08:24:36.404Z,97765.22
2019-03-17T08:25:44.489Z,97770.09
2019-03-17T08:26:52.811Z,97767.62
2019-03-17T08:28:00.898Z,97767.95
2019-03-17T08:29:09.601Z,97757.12
2019-03-17T08:30:18.839Z,97761.26
2019-03-17T08:31:27.685Z,97754.73
2019-03-17T08:32:35.767Z,97753.45
2019-03-17T08:33:44.303Z,97762.98
2019-03-17T08:34:52.815Z,97761.84
2019-03-17T08:36:01.366Z,97762.02
2019-03-17T08:37:09.555Z,97763.56
2019-03-17T08:38:22.219Z,97753.91
2019-03-17T08:39:28.174Z,97751.76
2019-03-17T08:40:36.428Z,97756.27
2019-03-17T08:41:44.997Z,97746.59
2019-03-17T08:42:53.869Z,97738.76
2019-03-17T08:44:01.944Z,97743.77
2019-03-17T08:45:13.223Z,97742.44
2019-03-17T08:46:21.319Z,97754.96
2019-03-17T08:47:30.077Z,97751.77
2019-03-17T08:48:38.569Z,97747.92
2019-03-17T08:49:46.727Z,97766.11
2019-03-17T08:50:54.939Z,97756.27
2019-03-17T08:52:03.367Z,97760.45
2019-03-17T08:53:11.622Z,97752.80
2019-03-17T08:54:19.930Z,97757.63
2019-03-17T08:55:29.022Z,97755.48
2019-03-17T08:56:37.547Z,97758.16
2019-03-17T08:57:46.182Z,97767.00
2019-03-17T08:58:54.587Z,97761.67
2019-03-17T09:00:02.906Z,97759.81
2019-03-17T09:01:11.435Z,97752.98
2019-03-17T09:02:19.853Z,97760.33
2019-03-17T09:03:30.615Z,97756.83
2019-03-17T09:04:38.945Z,97769.66
2019-03-17T09:05:47.358Z,97759.97
2019-03-17T09:06:55.815Z,97765.33
2019-03-17T09:08:04.158Z,97754.44
2019-03-17T09:09:12.455Z,97755.28
2019-03-17T09:10:20.717Z,97757.75
2019-03-17T09:11:29.280Z,97749.73
2019-03-17T09:12:37.344Z,97752.23
2019-03-17T09:13:45.510Z,97755.89
2019-03-17T09:14:54.273Z,97750.33
2019-03-17T09:16:02.378Z,97757.19
2019-03-17T09:17:14.615Z,97758.02
2019-03-17T09:18:20.820Z,97754.02
2019-03-17T09:19:29.270Z,97758.53
2019-03-17T09:20:40.197Z,97767.20
2019-03-17T09:21:48.833Z,97765.69
2019-03-17T09:22:57.361Z,97764.68
2019-03-17T09:24:16.574Z,97763.19
2019-03-17T09:25:15.547Z,97766.48
2019-03-17T09:26:23.743Z,97772.70
2019-03-17T09:27:32.358Z,97764.49
2019-03-17T09:28:40.664Z,97762.33
2019-03-17T09:29:49.055Z,97757.16
2019-03-17T09:30:57.733Z,97757.80
2019-03-17T09:32:05.859Z,97765.43
2019-03-17T09:33:14.980Z,97748.36
2019-03-17T09:34:22.983Z,97748.55
2019-03-17T09:35:31.278Z,97752.01
2019-03-17T09:36:39.476Z,97752.28
2019-03-17T09:37:49.571Z,97753.61
2019-03-17T09:38:57.667Z,97735.20
2019-03-17T09:40:10.296Z,97735.34
2019-03-17T09:41:18.639Z,97735.00
2019-03-17T09:42:26.841Z,97748.34
2019-03-17T09:43:35.062Z,97748.20
2019-03-17T09:44:43.150Z,97741.66
2019-03-17T09:45:51.448Z,97731.77
2019-03-17T09:46:59.588Z,97731.56
2019-03-17T09:48:07.528Z,97730.99
2019-03-17T09:49:18.071Z,97734.64
2019-03-17T09:50:26.313Z,97734.23
2019-03-17T09:51:34.333Z,97731.50
2019-03-17T09:52:42.697Z,97737.67
2019-03-17T09:53:50.969Z,97734.14
2019-03-17T09:54:59.101Z,97725.20
2019-03-17T09:56:07.477Z,97738.06
2019-03-17T09:57:16.009Z,97733.03
2019-03-17T09:58:24.509Z,97740.72
2019-03-17T09:59:33.310Z,97731.23
2019-03-17T10:00:42.373Z,97725.98
2019-03-17T10:01:50.412Z,97732.53
2019-03-17T10:02:58.892Z,97734.38
2019-03-17T10:04:07.114Z,97722.55
2019-03-17T10:05:15.396Z,97725.31
2019-03-17T10:06:23.942Z,97722.11
2019-03-17T10:07:32.344Z,97739.76
2019-03-17T10:08:41.055Z,97727.16
2019-03-17T10:09:49.256Z,97728.50
2019-03-17T10:10:57.880Z,97724.23
2019-03-17T10:12:06.251Z,97730.58
2019-03-17T10:13:14.485Z,97730.09
2019-03-17T10:14:22.662Z,97712.02
2019-03-17T10:15:33.275Z,97720.22
2019-03-17T10:16:42.054Z,97713.16
2019-03-17T10:17:50.524Z,97717.35
2019-03-17T10:18:58.741Z,97714.90
2019-03-17T10:20:13.952Z,97704.69
2019-03-17T10:21:22.761Z,97719.72
2019-03-17T10:22:31.702Z,97705.20
2019-03-17T10:23:39.848Z,97702.05
2019-03-17T10:24:48.123Z,97704.67
2019-03-17T10:25:56.369Z,97702.20
2019-03-17T10:27:05.718Z,97694.33
2019-03-17T10:28:14.422Z,97696.05
2019-03-17T10:29:22.571Z,97700.77
2019-03-17T10:30:31.024Z,97703.59
2019-03-17T10:31:39.369Z,97705.48
2019-03-17T10:32:47.413Z,97698.39
2019-03-17T10:33:55.749Z,97714.77
2019-03-17T10:35:04.112Z,97697.05
2019-03-17T10:36:12.166Z,97710.75
2019-03-17T10:37:20.321Z,97686.84
2019-03-17T10:38:29.444Z,97693.22
2019-03-17T10:39:37.966Z,97693.03
2019-03-17T10:40:48.421Z,97694.86
2019-03-17T10:41:56.470Z,97685.48
2019-03-17T10:43:05.001Z,97692.86
2019-03-17T10:44:13.368Z,97686.68
2019-03-17T10:45:21.611Z,97680.72
2019-03-17T10:46:30.255Z,97684.36
2019-03-17T10:47:38.421Z,97690.53
2019-03-17T10:48:47.483Z,97682.25
2019-03-17T10:49:55.962Z,97687.51
2019-03-17T10:51:04.412Z,97687.17
2019-03-17T10:52:12.595Z,97685.13
2019-03-17T10:53:21.304Z,97678.16
2019-03-17T10:54:30.214Z,97677.92
2019-03-17T10:55:38.383Z,97673.61
2019-03-17T10:56:46.539Z,97668.64
2019-03-17T10:57:54.975Z,97665.27
2019-03-17T10:59:04.201Z,97671.28
2019-03-17T11:00:20.973Z,97669.83
2019-03-17T11:01:29.497Z,97666.37
2019-03-17T11:02:37.798Z,97665.69
2019-03-17T11:03:46.206Z,97656.81
2019-03-17T11:04:54.449Z,97648.45
2019-03-17T11:06:03.062Z,97650.16
2019-03-17T11:07:11.241Z,97645.35
2019-03-17T11:08:19.970Z,97645.59
2019-03-17T11:09:28.893Z,97642.17
2019-03-17T11:10:37.605Z,97643.00
2019-03-17T11:11:46.319Z,97638.11
2019-03-17T11:12:54.662Z,97638.27
2019-03-17T11:14:03.578Z,97642.11
2019-03-17T11:15:24.252Z,97634.04
2019-03-17T11:16:32.571Z,97637.06
2019-03-17T11:17:41.334Z,97634.78
2019-03-17T11:18:49.633Z,97638.95
2019-03-17T11:19:57.849Z,97631.79
2019-03-17T11:21:06.533Z,97640.23
2019-03-17T11:22:14.893Z,97638.13
2019-03-17T11:23:23.461Z,97646.89
2019-03-17T11:24:32.247Z,97640.00
2019-03-17T11:25:40.908Z,97636.00
2019-03-17T11:26:49.295Z,97640.20
2019-03-17T11:27:57.955Z,97647.50
2019-03-17T11:29:06.079Z,97637.45
2019-03-17T11:30:24.604Z,97632.97
2019-03-17T11:31:32.981Z,97631.16
2019-03-17T11:32:41.190Z,97634.27
2019-03-17T11:33:49.238Z,97624.48
2019-03-17T11:34:57.521Z,97621.87
2019-03-17T11:36:05.851Z,97623.64
2019-03-17T11:37:14.314Z,97623.72
2019-03-17T11:38:22.972Z,97609.91
2019-03-17T11:39:37.848Z,97619.42
2019-03-17T11:40:41.815Z,97632.11
2019-03-17T11:41:50.582Z,97620.69
2019-03-17T11:42:59.864Z,97619.34
2019-03-17T11:44:08.228Z,97618.05
2019-03-17T11:45:17.820Z,97618.19
2019-03-17T11:46:25.947Z,97627.95
2019-03-17T11:47:34.200Z,97612.41
2019-03-17T11:48:42.398Z,97606.47
2019-03-17T11:49:50.993Z,97601.64
2019-03-17T11:50:59.705Z,97608.79
2019-03-17T11:52:10.085Z,97602.30
2019-03-17T11:53:18.557Z,97606.75
2019-03-17T11:54:27.027Z,97604.73
2019-03-17T11:55:35.694Z,97603.38
2019-03-17T11:56:43.687Z,97602.92
2019-03-17T11:57:52.020Z,97600.23
2019-03-17T11:59:00.678Z,97588.97
2019-03-17T12:00:16.029Z,97589.62
2019-03-17T12:01:24.249Z,97586.48
2019-03-17T12:02:32.870Z,97582.48
2019-03-17T12:03:41.100Z,97573.00
2019-03-17T12:04:49.356Z,97573.12
2019-03-17T12:05:57.560Z,97580.34
2019-03-17T12:07:05.867Z,97573.41
2019-03-17T12:08:14.698Z,97581.86
2019-03-17T12:09:28.931Z,97578.36
2019-03-17T12:10:32.831Z,97577.24
2019-03-17T12:11:41.313Z,97571.09
2019-03-17T12:12:49.931Z,97571.69
2019-03-17T12:13:58.132Z,97566.97
2019-03-17T12:15:11.222Z,97574.47
2019-03-17T12:16:19.806Z,97569.48
2019-03-17T12:17:28.259Z,97564.07
2019-03-17T12:18:37.326Z,97573.09
2019-03-17T12:19:45.372Z,97565.67
2019-03-17T12:20:54.021Z,97562.65
2019-03-17T12:22:08.885Z,97568.30
2019-03-17T12:23:11.934Z,97554.41
2019-03-17T12:24:20.052Z,97553.61
2019-03-17T12:25:28.747Z,97544.04
2019-03-17T12:26:36.900Z,97549.18
2019-03-17T12:27:45.860Z,97547.16
2019-03-17T12:28:53.946Z,97551.98
2019-03-17T12:30:02.167Z,97549.75
2019-03-17T12:31:10.783Z,97543.98
2019-03-17T12:32:18.906Z,97552.12
2019-03-17T12:33:27.145Z,97549.00
2019-03-17T12:34:35.326Z,97545.10
2019-03-17T12:35:43.798Z,97541.14
2019-03-17T12:36:53.482Z,97544.52
2019-03-17T12:38:01.766Z,97549.89
2019-03-17T12:39:10.493Z,97545.92
2019-03-17T12:40:18.868Z,97548.28
2019-03-17T12:41:26.940Z,97546.45
2019-03-17T12:42:35.317Z,97543.97
2019-03-17T12:43:43.761Z,97555.94
2019-03-17T12:44:52.148Z,97540.10
2019-03-17T12:46:00.531Z,97539.63
2019-03-17T12:47:08.727Z,97544.13
2019-03-17T12:48:16.773Z,97541.39
2019-03-17T12:49:26.777Z,97534.47
2019-03-17T12:50:34.845Z,97535.37
2019-03-17T12:51:43.190Z,97541.75
2019-03-17T12:52:51.766Z,97531.31
2019-03-17T12:54:00.069Z,97559.95
2019-03-17T12:55:09.924Z,97547.77
2019-03-17T12:56:18.010Z,97532.41
2019-03-17T12:57:26.259Z,97547.91
2019-03-17T12:58:34.389Z,97532.20
2019-03-17T12:59:43.137Z,97530.67
2019-03-17T13:00:51.413Z,97524.16
2019-03-17T13:01:59.765Z,97531.13
2019-03-17T13:03:07.919Z,97527.72
2019-03-17T13:04:16.017Z,97530.72
2019-03-17T13:05:24.112Z,97532.16
2019-03-17T13:06:32.621Z,97526.84
2019-03-17T13:07:40.822Z,97517.09
2019-03-17T13:08:49.524Z,97528.87
2019-03-17T13:09:57.677Z,97523.98
2019-03-17T13:11:06.330Z,97526.92
2019-03-17T13:12:14.363Z,97518.84
2019-03-17T13:13:22.906Z,97517.43
2019-03-17T13:14:30.930Z,97517.39
2019-03-17T13:15:39.688Z,97508.70
2019-03-17T13:16:47.955Z,97509.59
2019-03-17T13:17:56.267Z,97502.11
2019-03-17T13:19:04.442Z,97502.56
2019-03-17T13:20:22.267Z,97501.45
2019-03-17T13:21:31.387Z,97492.42
2019-03-17T13:22:39.891Z,97487.70
2019-03-17T13:23:48.239Z,97496.03
2019-03-17T13:24:56.729Z,97495.11
2019-03-17T13:26:05.468Z,97496.43